createdAt,value
2023-03-17T00:00:47.081Z,2.53
2023-03-17T00:03:23.392Z,2.83
2023-03-17T00:05:50.898Z,2.23
2023-03-17T00:08:29.125Z,3.07
2023-03-17T00:10:56.572Z,2.80
2023-03-17T00:13:23.936Z,2.70
2023-03-17T00:15:56.931Z,2.90
2023-03-17T00:18:24.203Z,2.40
2023-03-17T00:20:51.268Z,2.50
2023-03-17T00:23:20.669Z,2.77
2023-03-17T00:25:48.414Z,2.90
2023-03-17T00:28:22.404Z,2.73
2023-03-17T00:30:54.629Z,2.07
2023-03-17T00:33:25.547Z,3.17
2023-03-17T00:35:52.956Z,2.47
2023-03-17T00:38:21.485Z,2.20
2023-03-17T00:40:48.794Z,2.40
2023-03-17T00:43:15.967Z,2.73
2023-03-17T00:45:44.008Z,2.40
2023-03-17T00:48:21.657Z,2.63
2023-03-17T00:50:49.987Z,3.00
2023-03-17T00:53:20.642Z,2.30
2023-03-17T00:55:47.872Z,2.80
2023-03-17T00:58:32.837Z,2.20
2023-03-17T01:01:00.822Z,3.17
2023-03-17T01:03:28.365Z,3.00
2023-03-17T01:05:59.498Z,2.80
2023-03-17T01:08:26.885Z,2.40
2023-03-17T01:10:54.614Z,2.63
2023-03-17T01:13:22.060Z,2.40
2023-03-17T01:15:51.964Z,2.43
2023-03-17T01:18:21.289Z,2.67
2023-03-17T01:20:48.729Z,1.90
2023-03-17T01:23:16.374Z,2.53
2023-03-17T01:25:44.797Z,2.53
2023-03-17T01:28:16.720Z,2.30
2023-03-17T01:30:43.872Z,2.47
2023-03-17T01:33:12.919Z,2.87
2023-03-17T01:35:41.258Z,2.20
2023-03-17T01:38:08.617Z,2.60
2023-03-17T01:40:44.817Z,2.80
2023-03-17T01:43:11.835Z,2.20
2023-03-17T01:46:16.021Z,2.47
2023-03-17T01:49:14.381Z,2.57
2023-03-17T01:52:04.455Z,2.80
2023-03-17T01:54:52.383Z,2.47
2023-03-17T01:57:19.953Z,2.47
2023-03-17T01:59:51.965Z,2.50
2023-03-17T02:02:30.799Z,2.57
2023-03-17T02:04:58.434Z,2.43
2023-03-17T02:07:26.616Z,2.47
2023-03-17T02:09:55.454Z,2.30
2023-03-17T02:12:24.519Z,2.67
2023-03-17T02:14:52.665Z,2.40
2023-03-17T02:17:22.025Z,2.40
2023-03-17T02:19:49.395Z,2.53
2023-03-17T02:22:17.897Z,2.70
2023-03-17T02:24:52.560Z,2.50
2023-03-17T02:27:31.112Z,2.60
2023-03-17T02:29:59.734Z,2.17
2023-03-17T02:32:26.842Z,2.23
2023-03-17T02:34:55.955Z,2.77
2023-03-17T02:37:23.543Z,2.60
2023-03-17T02:39:52.214Z,2.87
2023-03-17T02:42:19.589Z,2.80
2023-03-17T02:44:46.668Z,2.60
2023-03-17T02:47:13.975Z,3.20
2023-03-17T02:49:42.635Z,2.57
2023-03-17T02:52:09.777Z,2.40
2023-03-17T02:54:36.873Z,2.50
2023-03-17T02:57:03.928Z,2.50
2023-03-17T02:59:31.143Z,2.13
2023-03-17T03:01:58.199Z,2.60
2023-03-17T03:04:26.165Z,3.07
2023-03-17T03:06:53.855Z,3.17
2023-03-17T03:09:21.034Z,2.87
2023-03-17T03:11:48.175Z,2.27
2023-03-17T03:14:15.789Z,2.20
2023-03-17T03:16:43.457Z,2.60
2023-03-17T03:19:10.503Z,2.60
2023-03-17T03:21:37.615Z,2.40
2023-03-17T03:24:05.070Z,2.27
2023-03-17T03:26:32.112Z,2.73
2023-03-17T03:28:59.915Z,2.53
2023-03-17T03:31:26.800Z,2.60
2023-03-17T03:33:54.068Z,2.60
2023-03-17T03:36:21.661Z,2.43
2023-03-17T03:38:48.702Z,2.20
2023-03-17T03:41:15.778Z,2.50
2023-03-17T03:43:42.896Z,2.33
2023-03-17T03:46:09.548Z,2.67
2023-03-17T03:48:36.837Z,2.37
2023-03-17T03:51:03.970Z,2.57
2023-03-17T03:53:31.003Z,2.40
2023-03-17T03:55:57.626Z,2.10
2023-03-17T03:58:24.512Z,3.07
2023-03-17T04:00:51.572Z,2.40
2023-03-17T04:03:18.505Z,2.70
2023-03-17T04:05:45.569Z,2.70
2023-03-17T04:08:12.245Z,2.83
2023-03-17T04:10:39.290Z,2.37
2023-03-17T04:13:06.552Z,2.20
2023-03-17T04:15:33.710Z,2.23
2023-03-17T04:18:01.056Z,2.87
2023-03-17T04:20:28.454Z,2.60
2023-03-17T04:22:56.106Z,2.60
2023-03-17T04:25:23.123Z,2.50
2023-03-17T04:27:50.184Z,3.30
2023-03-17T04:30:17.717Z,2.90
2023-03-17T04:32:45.274Z,2.30
2023-03-17T04:35:18.294Z,2.50
2023-03-17T04:37:45.530Z,2.50
2023-03-17T04:40:13.611Z,2.27
2023-03-17T04:42:40.723Z,2.33
2023-03-17T04:45:11.213Z,2.70
2023-03-17T04:47:39.262Z,2.30
2023-03-17T04:50:08.030Z,2.40
2023-03-17T04:52:36.359Z,2.80
2023-03-17T04:55:03.725Z,2.20
2023-03-17T04:57:30.907Z,2.83
2023-03-17T04:59:57.953Z,2.83
2023-03-17T05:02:25.224Z,2.40
2023-03-17T05:04:52.357Z,2.27
2023-03-17T05:07:19.427Z,2.40
2023-03-17T05:09:47.386Z,2.73
2023-03-17T05:12:14.588Z,2.50
2023-03-17T05:14:41.558Z,2.67
2023-03-17T05:17:08.669Z,2.77
2023-03-17T05:19:35.994Z,2.80
2023-03-17T05:22:03.007Z,2.70
2023-03-17T05:24:30.080Z,2.47
2023-03-17T05:26:57.160Z,3.03
2023-03-17T05:29:24.198Z,2.50
2023-03-17T05:31:51.226Z,2.80
2023-03-17T05:34:18.247Z,2.37
2023-03-17T05:36:46.336Z,2.70
2023-03-17T05:39:14.605Z,2.73
2023-03-17T05:41:42.240Z,2.60
2023-03-17T05:44:09.349Z,2.50
2023-03-17T05:46:37.173Z,2.90
2023-03-17T05:49:04.271Z,2.70
2023-03-17T05:51:31.605Z,3.10
2023-03-17T05:53:58.664Z,2.70
2023-03-17T05:56:33.141Z,2.23
2023-03-17T05:59:01.530Z,2.70
2023-03-17T06:01:28.937Z,2.50
2023-03-17T06:03:56.094Z,3.00
2023-03-17T06:06:24.460Z,2.60
2023-03-17T06:08:51.613Z,2.67
2023-03-17T06:11:20.563Z,2.50
2023-03-17T06:13:47.644Z,2.30
2023-03-17T06:16:14.540Z,2.67
2023-03-17T06:18:41.622Z,2.63
2023-03-17T06:21:09.707Z,3.87
2023-03-17T06:23:36.845Z,2.57
2023-03-17T06:26:03.674Z,3.03
2023-03-17T06:28:31.049Z,2.50
2023-03-17T06:30:58.138Z,2.43
2023-03-17T06:33:25.922Z,2.40
2023-03-17T06:35:53.277Z,2.53
2023-03-17T06:38:20.809Z,2.37
2023-03-17T06:40:47.930Z,3.23
2023-03-17T06:43:17.024Z,2.80
2023-03-17T06:45:44.051Z,3.40
2023-03-17T06:48:11.336Z,2.77
2023-03-17T06:50:38.617Z,3.13
2023-03-17T06:53:05.274Z,2.80
2023-03-17T06:55:33.577Z,3.03
2023-03-17T06:58:01.824Z,3.10
2023-03-17T07:00:30.242Z,2.80
2023-03-17T07:02:57.794Z,2.87
2023-03-17T07:05:24.939Z,2.43
2023-03-17T07:07:52.052Z,2.70
2023-03-17T07:10:19.287Z,2.60
2023-03-17T07:12:46.293Z,2.80
2023-03-17T07:15:13.490Z,3.10
2023-03-17T07:17:41.450Z,3.27
2023-03-17T07:20:09.581Z,2.50
2023-03-17T07:22:36.664Z,3.83
2023-03-17T07:25:03.915Z,2.83
2023-03-17T07:27:31.139Z,2.80
2023-03-17T07:30:00.353Z,2.87
2023-03-17T07:32:27.997Z,3.10
2023-03-17T07:34:55.305Z,3.00
2023-03-17T07:37:22.418Z,2.90
2023-03-17T07:39:49.118Z,2.60
2023-03-17T07:42:17.317Z,2.63
2023-03-17T07:44:44.523Z,3.10
2023-03-17T07:47:11.872Z,2.67
2023-03-17T07:49:42.003Z,2.67
2023-03-17T07:52:10.288Z,2.90
2023-03-17T07:54:37.610Z,2.70
2023-03-17T07:57:05.118Z,2.87
2023-03-17T07:59:32.276Z,3.27
2023-03-17T08:02:01.183Z,2.67
2023-03-17T08:04:28.568Z,3.30
2023-03-17T08:06:55.829Z,2.53
2023-03-17T08:09:23.046Z,3.00
2023-03-17T08:11:50.600Z,2.97
2023-03-17T08:14:17.701Z,3.03
2023-03-17T08:16:44.925Z,2.80
2023-03-17T08:19:12.240Z,2.67
2023-03-17T08:21:39.331Z,2.70
2023-03-17T08:24:06.609Z,2.80
2023-03-17T08:26:33.721Z,2.53
2023-03-17T08:29:01.361Z,2.60
2023-03-17T08:31:28.441Z,2.80
2023-03-17T08:33:57.049Z,2.40
2023-03-17T08:36:24.504Z,2.80
2023-03-17T08:38:51.555Z,3.07
2023-03-17T08:41:21.721Z,2.40
2023-03-17T08:43:48.891Z,2.57
2023-03-17T08:46:17.005Z,2.53
2023-03-17T08:48:45.241Z,2.03
2023-03-17T08:51:12.751Z,2.00
2023-03-17T08:53:40.251Z,2.40
2023-03-17T08:56:07.451Z,2.20
2023-03-17T08:58:35.961Z,3.10
2023-03-17T09:01:04.744Z,2.40
2023-03-17T09:03:32.729Z,2.23
2023-03-17T09:06:00.002Z,2.40
2023-03-17T09:08:27.707Z,2.60
2023-03-17T09:10:54.952Z,2.67
2023-03-17T09:13:22.645Z,2.40
2023-03-17T09:15:51.818Z,2.70
2023-03-17T09:18:21.870Z,2.50
2023-03-17T09:20:49.583Z,1.80
2023-03-17T09:23:16.560Z,2.30
2023-03-17T09:25:43.823Z,2.50
2023-03-17T09:28:12.085Z,2.43
2023-03-17T09:30:42.559Z,2.00
2023-03-17T09:33:10.447Z,2.30
2023-03-17T09:35:37.555Z,2.00
2023-03-17T09:38:04.608Z,1.90
2023-03-17T09:40:35.921Z,2.20
2023-03-17T09:43:37.116Z,2.60
2023-03-17T09:46:37.993Z,2.17
2023-03-17T09:49:11.839Z,2.30
2023-03-17T09:51:39.273Z,2.20
2023-03-17T09:54:24.660Z,2.47
2023-03-17T09:56:58.656Z,2.00
2023-03-17T09:59:30.151Z,2.23
2023-03-17T10:01:57.606Z,2.03
2023-03-17T10:04:24.835Z,2.10
2023-03-17T10:06:55.683Z,2.20
2023-03-17T10:09:30.973Z,2.03
2023-03-17T10:12:22.744Z,1.97
2023-03-17T10:15:00.448Z,2.20
2023-03-17T10:17:41.491Z,1.87
2023-03-17T10:20:24.425Z,1.97
2023-03-17T10:23:02.411Z,2.30
2023-03-17T10:25:32.613Z,2.07
2023-03-17T10:28:24.495Z,2.50
2023-03-17T10:30:52.588Z,2.20
2023-03-17T10:33:19.789Z,2.27
2023-03-17T10:35:47.632Z,2.10
2023-03-17T10:38:24.481Z,2.07
2023-03-17T10:41:05.709Z,2.07
2023-03-17T10:43:41.492Z,1.80
2023-03-17T10:46:22.179Z,2.40
2023-03-17T10:48:56.571Z,2.07
2023-03-17T10:51:35.386Z,2.07
2023-03-17T10:54:08.013Z,2.07
2023-03-17T10:56:37.323Z,2.10
2023-03-17T10:59:14.810Z,2.10
2023-03-17T11:01:51.314Z,2.13
2023-03-17T11:04:31.522Z,2.40
2023-03-17T11:07:00.247Z,2.03
2023-03-17T11:09:30.163Z,2.10
2023-03-17T11:12:04.379Z,2.60
2023-03-17T11:14:31.449Z,2.07
2023-03-17T11:17:15.222Z,2.40
2023-03-17T11:19:53.575Z,1.97
2023-03-17T11:22:37.708Z,2.47
2023-03-17T11:25:15.940Z,2.37
2023-03-17T11:28:19.799Z,2.60
2023-03-17T11:31:00.725Z,2.30
2023-03-17T11:33:55.062Z,2.10
2023-03-17T11:36:57.389Z,2.13
2023-03-17T11:39:36.328Z,2.20
2023-03-17T11:42:17.264Z,2.30
2023-03-17T11:44:57.728Z,2.20
2023-03-17T11:47:54.131Z,1.83
2023-03-17T11:50:50.163Z,2.00
2023-03-17T11:53:49.934Z,2.50
2023-03-17T11:56:47.676Z,2.10
2023-03-17T11:59:22.648Z,2.00
2023-03-17T12:02:13.213Z,1.47
2023-03-17T12:04:55.579Z,1.90
2023-03-17T12:07:46.677Z,2.10
2023-03-17T12:10:21.708Z,1.90
2023-03-17T12:12:57.040Z,2.00
2023-03-17T12:15:39.176Z,2.00
2023-03-17T12:18:21.317Z,2.13
2023-03-17T12:20:56.706Z,2.03
2023-03-17T12:23:45.769Z,2.33
2023-03-17T12:26:14.580Z,2.27
2023-03-17T12:28:59.742Z,2.33
2023-03-17T12:31:37.898Z,1.77
2023-03-17T12:34:18.460Z,2.17
2023-03-17T12:36:45.583Z,2.10
2023-03-17T12:39:21.855Z,1.83
2023-03-17T12:42:13.522Z,2.60
2023-03-17T12:44:54.232Z,2.27
2023-03-17T12:47:49.507Z,2.10
2023-03-17T12:50:32.918Z,2.30
2023-03-17T12:53:21.337Z,2.40
2023-03-17T12:55:51.499Z,2.20
2023-03-17T12:58:30.004Z,2.10
2023-03-17T13:01:08.965Z,2.50
2023-03-17T13:03:45.338Z,2.17
2023-03-17T13:06:20.711Z,2.17
2023-03-17T13:08:51.666Z,2.07
2023-03-17T13:11:36.656Z,1.80
2023-03-17T13:14:26.967Z,2.07
2023-03-17T13:17:28.805Z,1.73
2023-03-17T13:19:55.974Z,1.90
2023-03-17T13:22:22.983Z,2.00
2023-03-17T13:24:53.537Z,2.00
2023-03-17T13:27:32.353Z,1.93
2023-03-17T13:30:26.722Z,2.00
2023-03-17T13:33:15.157Z,1.60
2023-03-17T13:35:43.562Z,2.07
2023-03-17T13:39:04.924Z,1.90
2023-03-17T13:42:19.160Z,1.70
2023-03-17T13:45:10.662Z,2.17
2023-03-17T13:47:42.471Z,2.20
2023-03-17T13:50:12.492Z,2.13
2023-03-17T13:52:49.706Z,1.90
2023-03-17T13:55:20.446Z,1.80
2023-03-17T13:58:06.166Z,2.13
2023-03-17T14:00:34.977Z,2.10
2023-03-17T14:03:23.054Z,2.40
2023-03-17T14:05:52.568Z,2.00
2023-03-17T14:08:37.791Z,2.10
2023-03-17T14:11:16.114Z,2.23
2023-03-17T14:14:26.122Z,2.10
2023-03-17T14:17:20.349Z,2.13
2023-03-17T14:20:08.107Z,2.40
2023-03-17T14:22:45.259Z,2.00
2023-03-17T14:25:18.084Z,2.13
2023-03-17T14:27:57.506Z,1.80
2023-03-17T14:30:27.115Z,2.10
2023-03-17T14:33:12.268Z,2.40
2023-03-17T14:35:42.901Z,2.03
2023-03-17T14:38:22.662Z,2.27
2023-03-17T14:40:50.681Z,2.03
2023-03-17T14:43:17.691Z,2.23
2023-03-17T14:46:12.450Z,2.70
2023-03-17T14:48:42.950Z,2.47
2023-03-17T14:51:30.404Z,2.10
2023-03-17T14:54:00.863Z,1.90
2023-03-17T14:56:34.700Z,1.60
2023-03-17T14:59:31.901Z,2.40
2023-03-17T15:02:01.962Z,2.30
2023-03-17T15:04:31.776Z,1.90
2023-03-17T15:07:01.649Z,2.37
2023-03-17T15:09:34.768Z,2.00
2023-03-17T15:12:06.726Z,2.10
2023-03-17T15:14:35.620Z,1.70
2023-03-17T15:17:05.621Z,2.03
2023-03-17T15:19:45.410Z,1.80
2023-03-17T15:22:27.440Z,2.20
2023-03-17T15:25:00.839Z,1.77
2023-03-17T15:27:28.815Z,1.80
2023-03-17T15:29:56.439Z,2.33
2023-03-17T15:32:26.027Z,2.43
2023-03-17T15:34:56.281Z,2.00
2023-03-17T15:37:25.882Z,2.20
2023-03-17T15:39:55.023Z,1.80
2023-03-17T15:42:30.977Z,2.07
2023-03-17T15:45:00.022Z,1.87
2023-03-17T15:47:29.997Z,2.13
2023-03-17T15:49:59.327Z,2.03
2023-03-17T15:52:27.534Z,2.10
2023-03-17T15:54:56.839Z,1.77
2023-03-17T15:57:24.248Z,1.67
2023-03-17T15:59:51.318Z,1.50
2023-03-17T16:02:31.556Z,2.00
2023-03-17T16:05:01.453Z,2.00
2023-03-17T16:07:30.763Z,2.00
2023-03-17T16:09:57.935Z,1.93
2023-03-17T16:12:25.146Z,2.30
2023-03-17T16:14:51.743Z,2.23
2023-03-17T16:22:44.249Z,1.85
2023-03-17T16:25:21.647Z,1.93
2023-03-17T16:27:49.149Z,2.10
2023-03-17T16:30:21.380Z,2.10
2023-03-17T16:32:48.870Z,1.97
2023-03-17T16:35:17.752Z,2.83
2023-03-17T16:37:44.915Z,1.77
2023-03-17T16:40:35.771Z,2.00
2023-03-17T16:43:12.855Z,2.40
2023-03-17T16:45:42.870Z,1.77
2023-03-17T16:48:14.734Z,1.87
2023-03-17T16:50:42.685Z,1.90
2023-03-17T16:53:09.848Z,1.97
2023-03-17T16:55:38.075Z,1.77
2023-03-17T16:58:28.046Z,1.50
2023-03-17T17:00:59.359Z,1.60
2023-03-17T17:03:26.382Z,1.90
2023-03-17T17:05:53.532Z,2.10
2023-03-17T17:08:20.261Z,1.80
2023-03-17T17:10:47.044Z,1.60
2023-03-17T17:13:14.213Z,2.20
2023-03-17T17:15:41.671Z,1.83
2023-03-17T17:18:14.442Z,1.80
2023-03-17T17:20:42.847Z,1.83
2023-03-17T17:23:18.712Z,1.90
2023-03-17T17:25:45.831Z,2.10
2023-03-17T17:28:15.240Z,2.03
2023-03-17T17:30:44.988Z,2.00
2023-03-17T17:33:12.353Z,2.27
2023-03-17T17:35:39.109Z,2.03
2023-03-17T17:38:15.336Z,2.00
2023-03-17T17:40:41.963Z,2.10
2023-03-17T17:43:09.506Z,1.70
2023-03-17T17:45:36.629Z,2.33
2023-03-17T17:48:03.893Z,2.23
2023-03-17T17:50:31.331Z,2.20
2023-03-17T17:53:04.872Z,2.27
2023-03-17T17:55:33.309Z,1.80
2023-03-17T17:58:00.498Z,2.03
2023-03-17T18:00:27.716Z,2.17
2023-03-17T18:02:54.430Z,1.90
2023-03-17T18:05:21.430Z,1.90
2023-03-17T18:07:48.517Z,2.10
2023-03-17T18:10:22.437Z,2.00
2023-03-17T18:12:49.193Z,1.93
2023-03-17T18:15:16.819Z,2.13
2023-03-17T18:17:43.981Z,2.27
2023-03-17T18:20:16.897Z,1.93
2023-03-17T18:22:44.139Z,2.13
2023-03-17T18:25:12.702Z,1.80
2023-03-17T18:27:39.774Z,2.27
2023-03-17T18:30:08.894Z,2.07
2023-03-17T18:32:37.111Z,2.30
2023-03-17T18:35:09.082Z,1.90
2023-03-17T18:37:36.222Z,2.17
2023-03-17T18:40:14.399Z,5.97
2023-03-17T18:42:43.437Z,2.13
2023-03-17T18:45:11.528Z,2.23
2023-03-17T18:47:39.070Z,2.13
2023-03-17T18:50:08.050Z,2.20
2023-03-17T18:52:36.794Z,2.10
2023-03-17T18:55:04.312Z,2.43
2023-03-17T18:57:31.559Z,1.87
2023-03-17T18:59:58.653Z,2.00
2023-03-17T19:02:25.765Z,2.17
2023-03-17T19:04:52.352Z,2.10
2023-03-17T19:07:19.500Z,2.50
2023-03-17T19:09:46.535Z,2.40
2023-03-17T19:12:14.234Z,2.67
2023-03-17T19:14:40.942Z,2.77
2023-03-17T19:17:08.715Z,2.60
2023-03-17T19:19:35.672Z,2.43
2023-03-17T19:22:03.832Z,2.57
2023-03-17T19:24:32.053Z,2.33
2023-03-17T19:26:59.209Z,2.53
2023-03-17T19:29:27.717Z,2.47
2023-03-17T19:31:54.794Z,2.50
2023-03-17T19:34:22.934Z,2.63
2023-03-17T19:36:51.133Z,4.20
2023-03-17T19:39:18.069Z,2.90
2023-03-17T19:41:47.292Z,2.83
2023-03-17T19:44:14.706Z,2.77
2023-03-17T19:46:41.827Z,2.40
2023-03-17T19:49:09.464Z,2.37
2023-03-17T19:51:36.730Z,2.20
2023-03-17T19:54:05.153Z,2.30
2023-03-17T19:56:32.465Z,2.20
2023-03-17T19:58:59.778Z,2.77
2023-03-17T20:01:27.800Z,3.03
2023-03-17T20:03:55.019Z,3.13
2023-03-17T20:06:22.100Z,3.17
2023-03-17T20:08:49.137Z,2.97
2023-03-17T20:11:16.908Z,2.80
2023-03-17T20:13:44.038Z,2.87
2023-03-17T20:16:12.383Z,2.93
2023-03-17T20:18:39.532Z,2.60
2023-03-17T20:21:07.684Z,2.70
2023-03-17T20:23:36.597Z,3.07
2023-03-17T20:26:03.716Z,2.77
2023-03-17T20:28:31.310Z,3.20
2023-03-17T20:30:59.775Z,3.03
2023-03-17T20:33:27.659Z,3.70
2023-03-17T20:35:54.852Z,4.37
2023-03-17T20:38:22.661Z,3.63
2023-03-17T20:40:49.594Z,3.77
2023-03-17T20:43:16.946Z,3.77
2023-03-17T20:45:43.685Z,3.93
2023-03-17T20:48:11.141Z,4.50
2023-03-17T20:50:38.945Z,3.40
2023-03-17T20:53:05.695Z,3.83
2023-03-17T20:55:32.284Z,3.57
2023-03-17T20:57:59.595Z,3.07
2023-03-17T21:00:26.901Z,3.60
2023-03-17T21:02:54.065Z,2.90
2023-03-17T21:05:24.658Z,2.67
2023-03-17T21:07:51.710Z,3.17
2023-03-17T21:10:19.203Z,3.73
2023-03-17T21:12:46.328Z,3.37
2023-03-17T21:15:14.028Z,3.60
2023-03-17T21:17:42.105Z,3.13
2023-03-17T21:20:11.563Z,3.00
2023-03-17T21:22:39.798Z,3.20
2023-03-17T21:25:08.625Z,3.60
2023-03-17T21:27:39.801Z,3.17
2023-03-17T21:30:13.370Z,3.95
2023-03-17T21:32:40.985Z,3.67
2023-03-17T21:35:08.628Z,4.13
2023-03-17T21:37:35.396Z,3.50
2023-03-17T21:40:03.187Z,3.10
2023-03-17T21:42:30.362Z,3.63
2023-03-17T21:44:57.396Z,3.70
2023-03-17T21:47:24.437Z,3.10
2023-03-17T21:49:51.157Z,3.07
2023-03-17T21:52:20.634Z,3.40
2023-03-17T21:54:47.898Z,2.90
2023-03-17T21:57:14.941Z,3.20
2023-03-17T21:59:42.212Z,3.47
2023-03-17T22:02:12.454Z,3.47
2023-03-17T22:04:39.618Z,3.47
2023-03-17T22:07:06.832Z,3.20
2023-03-17T22:09:33.988Z,2.97
2023-03-17T22:12:01.113Z,3.47
2023-03-17T22:14:28.343Z,3.13
2023-03-17T22:16:55.389Z,2.90
2023-03-17T22:19:22.679Z,3.00
2023-03-17T22:21:50.090Z,3.10
2023-03-17T22:24:17.249Z,3.00
2023-03-17T22:26:44.460Z,3.00
2023-03-17T22:29:11.115Z,3.33
2023-03-17T22:31:38.246Z,3.20
2023-03-17T22:34:06.501Z,3.03
2023-03-17T22:36:33.461Z,3.27
2023-03-17T22:39:00.966Z,4.10
2023-03-17T22:41:29.257Z,3.30
2023-03-17T22:43:56.806Z,3.37
2023-03-17T22:46:24.540Z,2.90
2023-03-17T22:48:51.704Z,3.87
2023-03-17T22:51:22.184Z,3.20
2023-03-17T22:53:50.025Z,2.87
2023-03-17T22:56:18.361Z,3.30
2023-03-17T22:58:46.752Z,3.60
2023-03-17T23:01:16.399Z,3.70
2023-03-17T23:03:43.724Z,3.63
2023-03-17T23:06:11.540Z,3.37
2023-03-17T23:08:39.996Z,3.40
2023-03-17T23:11:12.334Z,2.87
2023-03-17T23:13:40.426Z,3.07
2023-03-17T23:16:08.413Z,3.13
2023-03-17T23:18:35.706Z,2.73
2023-03-17T23:21:03.581Z,3.10
2023-03-17T23:23:30.957Z,3.17
2023-03-17T23:25:58.196Z,3.10
2023-03-17T23:28:25.389Z,2.90
2023-03-17T23:30:52.818Z,3.50
2023-03-17T23:33:22.723Z,3.10
2023-03-17T23:35:50.563Z,3.53
2023-03-17T23:38:21.481Z,2.63
2023-03-17T23:40:49.248Z,2.90
2023-03-17T23:43:16.573Z,2.90
2023-03-17T23:45:44.012Z,2.73
2023-03-17T23:48:11.655Z,2.30
2023-03-17T23:50:41.006Z,3.13
2023-03-17T23:53:08.242Z,2.67
2023-03-17T23:55:35.663Z,2.50
2023-03-17T23:58:02.716Z,2.87
